Time;durP1;ratioP1;P1;durP2;ratioP2;P2;SDS_P1;SDS_P2;PMS_P1;PMS_P2;Temp;Humidity;BMP_temperature;BMP_pressure;BME280_temperature;BME280_humidity;BME280_pressure;Samples;Min_cycle;Max_cycle;Signal;HPM_P1;HPM_P2
2023/03/19 00:01:55;;;;;;;5.60;2.20;;;11.40;1.00;;;;;;5033443;28;20534;-83
2023/03/19 00:04:23;;;;;;;5.67;1.97;;;11.30;1.00;;;;;;5034944;28;20470;-83
2023/03/19 00:06:50;;;;;;;4.97;3.20;;;11.30;1.00;;;;;;5029922;28;20996;-84
2023/03/19 00:09:17;;;;;;;10.07;2.80;;;11.20;99.90;;;;;;5020734;28;20977;-84
2023/03/19 00:11:43;;;;;;;3.73;2.33;;;11.10;99.90;;;;;;5019137;28;20544;-84
2023/03/19 00:14:10;;;;;;;3.00;2.20;;;11.10;44.80;;;;;;5019567;28;20913;-83
2023/03/19 00:16:37;;;;;;;4.90;2.37;;;11.10;99.40;;;;;;5019949;28;20521;-84
2023/03/19 00:19:05;;;;;;;4.60;2.60;;;11.00;99.90;;;;;;5019363;28;20457;-84
2023/03/19 00:21:33;;;;;;;3.47;2.53;;;11.00;99.90;;;;;;5018171;28;20456;-84
2023/03/19 00:24:01;;;;;;;3.37;2.70;;;11.00;99.90;;;;;;5018971;28;20537;-84
2023/03/19 00:26:28;;;;;;;3.60;2.60;;;11.00;99.90;;;;;;5019447;28;20881;-84
2023/03/19 00:28:55;;;;;;;5.10;2.97;;;11.00;99.90;;;;;;5015627;28;20454;-84
2023/03/19 00:31:23;;;;;;;6.40;2.47;;;10.90;99.90;;;;;;5013418;28;20480;-82
2023/03/19 00:33:50;;;;;;;5.73;2.53;;;10.90;99.90;;;;;;5014360;28;20449;-83
2023/03/19 00:36:19;;;;;;;4.70;2.83;;;11.00;99.90;;;;;;5016653;28;20456;-83
2023/03/19 00:38:47;;;;;;;4.50;2.73;;;11.00;99.90;;;;;;5016851;28;20557;-83
2023/03/19 00:41:16;;;;;;;4.73;3.20;;;10.90;99.90;;;;;;5016420;28;20484;-83
2023/03/19 00:43:42;;;;;;;4.00;2.57;;;11.00;99.90;;;;;;5017603;28;20454;-82
2023/03/19 00:46:09;;;;;;;4.10;2.37;;;11.00;99.90;;;;;;5018272;28;20768;-82
2023/03/19 00:48:36;;;;;;;6.30;3.17;;;11.00;99.90;;;;;;5018024;28;20459;-84
2023/03/19 00:51:04;;;;;;;4.97;3.30;;;11.10;99.90;;;;;;5016445;28;20942;-84
2023/03/19 00:53:32;;;;;;;10.73;3.70;;;11.10;99.90;;;;;;5016900;28;20556;-85
2023/03/19 00:55:59;;;;;;;4.77;3.00;;;11.00;99.90;;;;;;5016154;28;20517;-82
2023/03/19 00:58:26;;;;;;;8.70;2.43;;;11.00;99.90;;;;;;5013676;28;20465;-83
2023/03/19 01:00:53;;;;;;;8.93;3.20;;;10.90;99.90;;;;;;5010239;28;20484;-83
2023/03/19 01:03:20;;;;;;;7.80;3.23;;;10.80;99.90;;;;;;5011691;28;20528;-84
2023/03/19 01:05:48;;;;;;;8.10;3.27;;;10.80;99.90;;;;;;5014645;28;20482;-84
2023/03/19 01:08:15;;;;;;;4.37;3.07;;;10.70;99.90;;;;;;5013912;28;20461;-84
2023/03/19 01:10:44;;;;;;;3.90;2.70;;;10.60;99.90;;;;;;5013005;28;20481;-84
2023/03/19 01:13:12;;;;;;;6.33;3.73;;;10.50;99.90;;;;;;5014439;28;20537;-83
2023/03/19 01:15:39;;;;;;;4.90;3.00;;;10.50;99.90;;;;;;5018727;28;20485;-84
2023/03/19 01:18:07;;;;;;;6.70;3.07;;;10.40;99.90;;;;;;5015101;28;20446;-84
2023/03/19 01:20:34;;;;;;;3.70;3.10;;;10.30;99.90;;;;;;5018721;28;20485;-81
2023/03/19 01:23:01;;;;;;;5.03;3.13;;;10.20;99.90;;;;;;5019091;28;21065;-83
2023/03/19 01:25:28;;;;;;;9.93;3.57;;;10.20;99.90;;;;;;5018920;28;20461;-84
2023/03/19 01:27:56;;;;;;;5.30;3.30;;;10.10;99.90;;;;;;5018119;28;20449;-85
2023/03/19 01:30:23;;;;;;;5.77;4.00;;;10.10;99.90;;;;;;5019563;28;20473;-84
2023/03/19 01:32:51;;;;;;;5.23;3.20;;;10.10;99.90;;;;;;5018504;28;20543;-84
2023/03/19 01:35:18;;;;;;;4.13;2.87;;;10.10;99.90;;;;;;5017892;28;20453;-84
2023/03/19 01:37:44;;;;;;;6.30;2.83;;;10.10;99.90;;;;;;5019885;28;20538;-84
2023/03/19 01:40:13;;;;;;;7.00;3.30;;;10.10;99.90;;;;;;5017752;28;20563;-83
2023/03/19 01:42:52;;;;;;;4.03;2.70;;;10.10;99.90;;;;;;5016729;28;20973;-84
2023/03/19 01:45:34;;;;;;;4.40;3.10;;;10.00;99.90;;;;;;5017245;28;20459;-83
2023/03/19 01:48:02;;;;;;;4.30;3.23;;;9.90;99.90;;;;;;5017506;28;20441;-83
2023/03/19 01:50:36;;;;;;;4.30;3.33;;;10.00;99.90;;;;;;5015612;28;20497;-80
2023/03/19 01:53:04;;;;;;;6.40;3.10;;;10.00;99.90;;;;;;5016679;28;20560;-85
2023/03/19 01:55:31;;;;;;;6.40;3.20;;;10.00;99.90;;;;;;5016848;28;20457;-84
2023/03/19 01:57:57;;;;;;;4.37;3.17;;;9.90;99.90;;;;;;5017203;28;20462;-83
2023/03/19 02:00:24;;;;;;;5.57;3.30;;;9.90;99.90;;;;;;5016975;28;20994;-83
2023/03/19 02:02:56;;;;;;;4.37;2.57;;;9.90;99.90;;;;;;5016402;28;20463;-84
2023/03/19 02:05:25;;;;;;;4.90;3.33;;;9.90;99.90;;;;;;5018347;28;20494;-83
2023/03/19 02:07:54;;;;;;;4.50;3.17;;;9.90;99.90;;;;;;5017532;28;20528;-84
2023/03/19 02:10:22;;;;;;;5.00;3.53;;;9.80;99.90;;;;;;5016878;28;20539;-82
2023/03/19 02:12:49;;;;;;;4.77;3.20;;;9.80;99.90;;;;;;5016332;28;20566;-84
2023/03/19 02:15:16;;;;;;;4.90;3.33;;;9.80;99.90;;;;;;5017748;28;20464;-84
2023/03/19 02:17:43;;;;;;;3.90;2.93;;;9.70;99.90;;;;;;5017438;28;20475;-84
2023/03/19 02:20:21;;;;;;;5.27;3.30;;;9.70;99.90;;;;;;5012086;28;20483;-83
2023/03/19 02:22:55;;;;;;;8.97;3.70;;;9.60;99.90;;;;;;5017239;28;20536;-84
2023/03/19 02:25:27;;;;;;;5.57;3.70;;;9.60;99.90;;;;;;5017540;28;20456;-84
2023/03/19 02:27:55;;;;;;;4.97;3.30;;;9.50;99.90;;;;;;5018472;28;20568;-85
2023/03/19 02:30:26;;;;;;;6.50;3.40;;;9.50;99.90;;;;;;5015910;28;20563;-83
2023/03/19 02:32:52;;;;;;;5.17;3.97;;;9.40;99.90;;;;;;5014955;28;20457;-84
2023/03/19 02:35:19;;;;;;;4.90;3.37;;;9.40;99.90;;;;;;5015209;28;20458;-83
2023/03/19 02:37:46;;;;;;;5.07;3.67;;;9.40;99.90;;;;;;5015630;28;20547;-84
2023/03/19 02:40:19;;;;;;;6.40;3.73;;;9.30;99.90;;;;;;5015470;28;20583;-83
2023/03/19 02:42:46;;;;;;;7.23;3.87;;;9.30;99.90;;;;;;5015274;28;20468;-83
2023/03/19 02:45:14;;;;;;;4.37;3.70;;;9.40;99.90;;;;;;5014681;28;20837;-83
2023/03/19 02:47:41;;;;;;;5.97;3.87;;;9.40;99.90;;;;;;5014601;28;20915;-83
2023/03/19 02:50:10;;;;;;;8.23;3.60;;;9.40;99.90;;;;;;5014708;28;20480;-83
2023/03/19 02:52:36;;;;;;;7.50;3.63;;;9.50;99.90;;;;;;5014686;28;20539;-83
2023/03/19 02:55:03;;;;;;;7.53;4.07;;;9.50;99.90;;;;;;5014151;28;20460;-84
2023/03/19 02:57:30;;;;;;;14.10;4.23;;;9.60;99.90;;;;;;5015270;28;20455;-83
2023/03/19 02:59:57;;;;;;;3.30;2.67;;;9.60;99.90;;;;;;5014274;28;20488;-83
2023/03/19 03:02:26;;;;;;;5.20;3.37;;;9.60;99.90;;;;;;5014292;28;20454;-82
2023/03/19 03:04:52;;;;;;;4.03;3.00;;;9.60;99.90;;;;;;5015030;28;20839;-83
2023/03/19 03:07:19;;;;;;;5.00;3.23;;;9.70;99.90;;;;;;5014844;28;20495;-84
2023/03/19 03:09:46;;;;;;;10.10;3.90;;;9.70;99.90;;;;;;5014570;28;20480;-84
2023/03/19 03:12:13;;;;;;;4.50;3.00;;;9.70;99.90;;;;;;5014496;28;20456;-82
2023/03/19 03:14:40;;;;;;;5.17;3.20;;;9.70;99.90;;;;;;5014359;28;20441;-83
2023/03/19 03:17:07;;;;;;;3.60;3.10;;;9.80;99.90;;;;;;5014647;28;20494;-83
2023/03/19 03:19:35;;;;;;;4.67;2.93;;;9.80;99.90;;;;;;5016798;28;20568;-83
2023/03/19 03:22:02;;;;;;;5.37;3.47;;;9.80;99.90;;;;;;5008240;28;20466;-83
2023/03/19 03:24:29;;;;;;;4.90;3.87;;;9.90;99.90;;;;;;5009944;28;20454;-83
2023/03/19 03:26:56;;;;;;;4.43;3.33;;;9.90;99.90;;;;;;5026822;28;20556;-84
2023/03/19 03:29:23;;;;;;;4.33;3.30;;;9.90;99.90;;;;;;5028951;28;20463;-83
2023/03/19 03:31:50;;;;;;;4.33;3.27;;;10.00;99.90;;;;;;5028071;28;20448;-84
2023/03/19 03:34:16;;;;;;;3.90;3.17;;;10.00;99.90;;;;;;5028645;28;20543;-83
2023/03/19 03:36:45;;;;;;;4.77;3.30;;;10.00;99.90;;;;;;5030668;28;20460;-82
2023/03/19 03:39:12;;;;;;;3.60;2.17;;;10.00;99.90;;;;;;5026575;28;20478;-83
2023/03/19 03:41:39;;;;;;;6.83;3.57;;;10.00;99.90;;;;;;5006819;28;20556;-83
2023/03/19 03:44:07;;;;;;;5.23;2.70;;;10.00;99.90;;;;;;5008219;28;20457;-83
2023/03/19 03:46:34;;;;;;;4.60;3.17;;;10.10;99.90;;;;;;5014740;28;20483;-82
2023/03/19 03:49:01;;;;;;;4.27;2.90;;;10.10;99.90;;;;;;5013700;28;20446;-83
2023/03/19 03:51:28;;;;;;;5.53;3.10;;;10.10;99.90;;;;;;5013658;28;20580;-84
2023/03/19 03:53:56;;;;;;;6.23;3.60;;;10.10;99.90;;;;;;5013955;28;20538;-83
2023/03/19 03:56:23;;;;;;;5.13;3.00;;;10.10;99.90;;;;;;5014020;28;21179;-83
2023/03/19 03:58:50;;;;;;;4.90;2.90;;;10.10;99.90;;;;;;5024136;28;20454;-83
2023/03/19 04:01:17;;;;;;;3.93;3.33;;;10.10;99.90;;;;;;5012713;28;20468;-83
2023/03/19 04:03:45;;;;;;;4.57;3.00;;;10.20;99.90;;;;;;5013605;28;20539;-83
2023/03/19 04:06:15;;;;;;;3.40;2.80;;;10.20;99.90;;;;;;5013165;28;20490;-82
2023/03/19 04:08:42;;;;;;;3.77;2.80;;;10.20;99.90;;;;;;5013123;28;20499;-82
2023/03/19 04:11:10;;;;;;;5.40;2.83;;;10.20;99.90;;;;;;5012625;28;20520;-83
2023/03/19 04:13:37;;;;;;;4.27;3.27;;;10.20;99.90;;;;;;5012631;28;20966;-84
2023/03/19 04:16:04;;;;;;;3.60;2.90;;;10.20;99.90;;;;;;5013403;28;20546;-83
2023/03/19 04:18:31;;;;;;;5.57;2.90;;;10.20;99.90;;;;;;5012944;28;20452;-83
2023/03/19 04:20:58;;;;;;;3.50;2.90;;;10.20;99.90;;;;;;5012387;28;20564;-83
2023/03/19 04:23:25;;;;;;;7.03;2.97;;;10.20;99.90;;;;;;5013459;28;20460;-83
2023/03/19 04:25:52;;;;;;;6.07;2.83;;;10.20;99.90;;;;;;5012716;28;20455;-83
2023/03/19 04:28:20;;;;;;;5.67;2.70;;;10.20;99.90;;;;;;5012506;28;20484;-83
2023/03/19 04:30:47;;;;;;;3.23;2.40;;;10.20;99.90;;;;;;5011793;28;20478;-82
2023/03/19 04:33:14;;;;;;;4.13;3.13;;;10.20;99.90;;;;;;5012878;28;20452;-83
2023/03/19 04:35:41;;;;;;;6.27;2.60;;;10.10;99.90;;;;;;5012913;28;20457;-84
2023/03/19 04:38:07;;;;;;;3.90;2.80;;;10.00;99.90;;;;;;5012853;28;20453;-83
2023/03/19 04:40:34;;;;;;;4.70;2.27;;;9.90;99.90;;;;;;5011940;28;20477;-81
2023/03/19 04:43:01;;;;;;;4.33;2.03;;;9.90;99.90;;;;;;5013257;28;20460;-82
2023/03/19 04:45:30;;;;;;;6.93;3.00;;;9.90;99.90;;;;;;5013085;28;20916;-83
2023/03/19 04:47:57;;;;;;;6.10;2.70;;;9.90;99.90;;;;;;5012564;28;20571;-83
2023/03/19 04:50:24;;;;;;;5.60;3.03;;;9.90;99.90;;;;;;5037790;23;21004;-83
2023/03/19 04:52:50;;;;;;;5.17;3.20;;;9.90;99.90;;;;;;5011925;28;20480;-85
2023/03/19 04:55:17;;;;;;;4.37;2.73;;;9.90;99.90;;;;;;5020879;28;20450;-85
2023/03/19 04:57:44;;;;;;;3.80;2.97;;;9.90;99.90;;;;;;5012592;28;20449;-83
2023/03/19 05:00:13;;;;;;;4.30;3.03;;;9.90;99.90;;;;;;5028013;28;20461;-89
2023/03/19 05:02:41;;;;;;;3.73;2.73;;;10.00;99.90;;;;;;5025992;28;20512;-84
2023/03/19 05:05:09;;;;;;;4.37;3.07;;;10.00;99.90;;;;;;5020836;28;20446;-87
2023/03/19 05:07:36;;;;;;;5.67;2.87;;;10.00;99.90;;;;;;5018543;28;20521;-86
2023/03/19 05:10:04;;;;;;;3.00;2.60;;;10.10;99.90;;;;;;5026382;28;20464;-85
2023/03/19 05:12:31;;;;;;;3.93;2.50;;;10.20;99.90;;;;;;5024349;28;20493;-86
2023/03/19 05:14:58;;;;;;;3.40;2.60;;;10.20;99.90;;;;;;5018400;28;20540;-85
2023/03/19 05:17:25;;;;;;;4.43;2.83;;;10.30;99.90;;;;;;5011733;28;20548;-85
2023/03/19 05:19:53;;;;;;;4.63;2.53;;;10.40;99.90;;;;;;5020361;28;20457;-85
2023/03/19 05:22:20;;;;;;;3.63;2.33;;;10.50;99.90;;;;;;5021323;28;20981;-85
2023/03/19 05:24:46;;;;;;;3.90;2.60;;;10.50;99.90;;;;;;5021590;28;20464;-85
2023/03/19 05:27:13;;;;;;;3.43;2.23;;;10.60;99.90;;;;;;5021238;28;20482;-85
2023/03/19 05:29:47;;;;;;;5.70;2.53;;;10.60;99.90;;;;;;5020685;28;20460;-84
2023/03/19 05:32:15;;;;;;;3.13;2.37;;;10.70;99.90;;;;;;5020608;28;20537;-86
2023/03/19 05:34:42;;;;;;;4.23;2.70;;;10.80;99.90;;;;;;5020553;28;20456;-86
2023/03/19 05:37:10;;;;;;;3.50;2.20;;;10.80;99.90;;;;;;5020609;28;20968;-86
2023/03/19 05:39:37;;;;;;;3.63;2.17;;;10.80;99.90;;;;;;5021026;28;20532;-86
2023/03/19 05:42:04;;;;;;;5.97;2.60;;;10.90;99.90;;;;;;5019911;28;20487;-86
2023/03/19 05:44:32;;;;;;;2.40;1.70;;;10.90;99.90;;;;;;5020941;28;20477;-85
2023/03/19 05:46:58;;;;;;;6.33;2.37;;;10.90;99.90;;;;;;5020421;28;20489;-84
2023/03/19 05:49:26;;;;;;;4.13;2.07;;;10.90;99.90;;;;;;5020303;28;20449;-85
2023/03/19 05:51:52;;;;;;;5.00;2.27;;;11.00;99.90;;;;;;5020121;28;20904;-85
2023/03/19 05:54:21;;;;;;;2.50;1.83;;;11.00;99.90;;;;;;5020890;28;20552;-84
2023/03/19 05:56:47;;;;;;;3.20;2.03;;;11.10;99.90;;;;;;5020449;28;20536;-84
2023/03/19 05:59:14;;;;;;;3.00;2.57;;;11.20;99.90;;;;;;5011841;28;20553;-84
2023/03/19 06:01:41;;;;;;;3.07;1.90;;;11.20;99.90;;;;;;5012746;28;20488;-84
2023/03/19 06:04:08;;;;;;;3.27;2.47;;;11.20;99.90;;;;;;5020582;28;20456;-83
2023/03/19 06:06:35;;;;;;;3.33;2.10;;;11.30;99.90;;;;;;5021424;28;20526;-84
2023/03/19 06:09:02;;;;;;;3.23;1.80;;;11.40;99.90;;;;;;5021595;28;20548;-84
2023/03/19 06:11:30;;;;;;;3.40;1.93;;;11.40;99.90;;;;;;5021271;28;20940;-85
2023/03/19 06:13:57;;;;;;;3.30;1.60;;;11.40;99.90;;;;;;5020501;28;20462;-83
2023/03/19 06:16:24;;;;;;;2.87;2.10;;;11.40;99.90;;;;;;5013735;28;20462;-82
2023/03/19 06:18:51;;;;;;;3.10;1.97;;;11.40;99.90;;;;;;5022760;28;20449;-85
2023/03/19 06:21:18;;;;;;;5.00;2.93;;;11.50;99.90;;;;;;5021167;28;20486;-84
2023/03/19 06:23:45;;;;;;;4.50;2.60;;;11.40;99.90;;;;;;5021480;28;20539;-83
2023/03/19 06:26:12;;;;;;;2.93;2.40;;;11.50;99.90;;;;;;5014754;28;20457;-84
2023/03/19 06:28:40;;;;;;;7.80;3.17;;;11.50;99.90;;;;;;5003894;28;20493;-84
2023/03/19 06:31:06;;;;;;;4.33;2.93;;;11.50;99.90;;;;;;5016194;28;20535;-84
2023/03/19 06:33:33;;;;;;;4.90;3.00;;;11.50;99.90;;;;;;5035809;28;20520;-83
2023/03/19 06:36:00;;;;;;;4.53;2.70;;;11.60;99.90;;;;;;5035713;28;20459;-85
2023/03/19 06:38:27;;;;;;;4.23;2.87;;;11.70;99.90;;;;;;5024258;28;20536;-83
2023/03/19 06:40:54;;;;;;;2.93;2.33;;;11.80;99.90;;;;;;5016181;28;20516;-83
2023/03/19 06:43:21;;;;;;;3.20;2.80;;;11.70;99.90;;;;;;5016972;28;20455;-83
2023/03/19 06:45:49;;;;;;;4.50;2.63;;;11.70;99.90;;;;;;5016974;28;20448;-81
2023/03/19 06:48:16;;;;;;;3.60;3.00;;;11.60;99.90;;;;;;5015674;28;21049;-81
2023/03/19 06:50:43;;;;;;;5.80;3.50;;;11.60;99.90;;;;;;5016259;28;20613;-81
2023/03/19 06:53:10;;;;;;;3.67;3.00;;;11.50;99.90;;;;;;5027299;28;20456;-82
2023/03/19 06:55:36;;;;;;;5.03;3.37;;;11.40;99.90;;;;;;5021906;28;20623;-82
2023/03/19 06:58:03;;;;;;;5.37;4.17;;;11.40;99.90;;;;;;5021179;28;20519;-82
2023/03/19 07:00:30;;;;;;;5.03;3.20;;;11.40;99.90;;;;;;5020235;28;20452;-80
2023/03/19 07:02:58;;;;;;;3.90;2.90;;;11.50;99.90;;;;;;5020323;28;20464;-81
2023/03/19 07:05:25;;;;;;;3.50;3.20;;;11.60;99.90;;;;;;5019786;28;20432;-81
2023/03/19 07:07:52;;;;;;;3.77;3.40;;;11.60;99.90;;;;;;5019261;28;20952;-82
2023/03/19 07:10:19;;;;;;;4.37;3.37;;;11.70;99.90;;;;;;5020270;28;20449;-82
2023/03/19 07:12:46;;;;;;;5.43;3.70;;;11.80;99.90;;;;;;5020176;28;20471;-81
2023/03/19 07:15:13;;;;;;;3.87;2.90;;;11.80;99.90;;;;;;5018669;28;20952;-83
2023/03/19 07:17:40;;;;;;;3.73;3.03;;;11.80;99.90;;;;;;5016904;28;20524;-81
2023/03/19 07:20:10;;;;;;;3.93;3.50;;;11.80;99.90;;;;;;4996100;28;20457;-83
2023/03/19 07:22:37;;;;;;;4.47;3.77;;;11.80;99.90;;;;;;5004034;28;20479;-83
2023/03/19 07:25:04;;;;;;;4.50;3.50;;;11.80;99.90;;;;;;4999612;28;20464;-83
2023/03/19 07:27:31;;;;;;;5.47;2.93;;;11.80;99.90;;;;;;5015058;28;20990;-82
2023/03/19 07:29:58;;;;;;;5.20;3.60;;;11.90;99.90;;;;;;5014620;28;20457;-82
2023/03/19 07:32:25;;;;;;;4.47;3.57;;;12.00;99.90;;;;;;5014900;28;20585;-82
2023/03/19 07:34:52;;;;;;;4.67;3.57;;;12.00;99.90;;;;;;5014914;28;20459;-82
2023/03/19 07:37:20;;;;;;;5.13;3.50;;;12.10;99.90;;;;;;5014792;28;20446;-83
2023/03/19 07:39:46;;;;;;;4.70;2.67;;;12.10;99.90;;;;;;5011006;28;20462;-82
2023/03/19 07:42:14;;;;;;;3.20;2.90;;;12.10;99.90;;;;;;5004458;28;20512;-81
2023/03/19 07:44:40;;;;;;;4.50;3.40;;;12.10;99.90;;;;;;4998486;28;20461;-83
2023/03/19 07:47:07;;;;;;;3.37;2.70;;;12.20;99.90;;;;;;5015343;28;20457;-83
2023/03/19 07:49:34;;;;;;;4.70;3.50;;;12.10;99.90;;;;;;5014326;28;20490;-82
2023/03/19 07:52:01;;;;;;;4.40;2.40;;;11.90;99.90;;;;;;5014044;28;20491;-84
2023/03/19 07:54:30;;;;;;;4.33;3.17;;;11.90;99.90;;;;;;5015114;28;20481;-84
2023/03/19 07:56:57;;;;;;;6.60;3.97;;;11.80;99.90;;;;;;5015900;28;20476;-84
2023/03/19 07:59:23;;;;;;;5.13;2.93;;;11.80;99.90;;;;;;4998803;28;20477;-85
2023/03/19 08:01:50;;;;;;;5.80;3.63;;;11.90;99.90;;;;;;4997966;28;20476;-83
2023/03/19 08:04:17;;;;;;;4.67;3.13;;;11.90;99.90;;;;;;4998387;28;20459;-84
2023/03/19 08:06:44;;;;;;;4.20;2.93;;;11.90;99.90;;;;;;4999022;28;20466;-85
2023/03/19 08:09:12;;;;;;;7.27;4.10;;;12.00;99.90;;;;;;5002429;28;20550;-84
2023/03/19 08:11:40;;;;;;;4.63;3.27;;;12.00;99.90;;;;;;4998890;28;20886;-84
2023/03/19 08:14:07;;;;;;;4.33;3.07;;;12.20;99.90;;;;;;4995040;28;20456;-85
2023/03/19 08:16:34;;;;;;;4.80;3.10;;;12.40;99.90;;;;;;4995249;28;20462;-84
2023/03/19 08:19:01;;;;;;;6.70;2.90;;;12.50;99.90;;;;;;4995685;28;20903;-85
2023/03/19 08:21:28;;;;;;;5.40;2.80;;;12.60;99.90;;;;;;4998754;28;20479;-85
2023/03/19 08:23:55;;;;;;;4.47;3.00;;;12.60;99.90;;;;;;5015385;28;20544;-85
2023/03/19 08:26:22;;;;;;;3.10;2.70;;;12.60;99.90;;;;;;5015289;28;20469;-84
2023/03/19 08:28:51;;;;;;;3.40;2.33;;;12.70;99.90;;;;;;5014943;28;20502;-85
2023/03/19 08:31:17;;;;;;;3.30;2.90;;;12.70;99.90;;;;;;5017993;28;20483;-84
2023/03/19 08:33:44;;;;;;;5.40;3.30;;;12.80;99.90;;;;;;5015912;28;20464;-85
2023/03/19 08:36:14;;;;;;;3.70;2.57;;;12.80;99.90;;;;;;5015235;28;20465;-85
2023/03/19 08:38:41;;;;;;;4.33;2.80;;;12.90;99.90;;;;;;5026877;28;20449;-85
2023/03/19 08:41:08;;;;;;;4.10;2.90;;;13.00;99.90;;;;;;5020374;28;20492;-85
2023/03/19 08:43:36;;;;;;;6.90;2.67;;;12.80;99.90;;;;;;5021244;28;20547;-85
2023/03/19 08:46:05;;;;;;;5.90;3.43;;;13.00;99.90;;;;;;5020361;28;20456;-85
2023/03/19 08:48:32;;;;;;;3.47;3.03;;;13.10;99.90;;;;;;5020722;28;20556;-86
2023/03/19 08:51:02;;;;;;;2.97;2.10;;;13.10;99.90;;;;;;5020585;28;20467;-86
2023/03/19 08:53:30;;;;;;;4.30;2.90;;;13.10;96.50;;;;;;5021756;28;20873;-86
2023/03/19 08:56:00;;;;;;;5.50;2.53;;;13.10;71.90;;;;;;5001257;28;20476;-84
2023/03/19 08:58:28;;;;;;;3.00;2.50;;;13.00;76.20;;;;;;5003684;28;20449;-85
2023/03/19 09:01:01;;;;;;;3.53;3.23;;;13.10;53.80;;;;;;5014571;28;20477;-85
2023/03/19 09:03:30;;;;;;;2.97;2.37;;;13.10;34.60;;;;;;5015112;28;20467;-85
2023/03/19 09:05:59;;;;;;;4.63;2.93;;;13.00;34.50;;;;;;5017328;28;20449;-84
2023/03/19 09:08:26;;;;;;;4.03;3.60;;;13.00;56.90;;;;;;5014141;28;20488;-85
2023/03/19 09:10:53;;;;;;;3.93;2.90;;;13.00;27.60;;;;;;5013485;28;20556;-85
2023/03/19 09:13:20;;;;;;;5.37;3.70;;;13.30;19.90;;;;;;5013439;28;20468;-85
2023/03/19 09:15:47;;;;;;;5.73;2.73;;;13.30;1.00;;;;;;5012890;28;20457;-85
2023/03/19 09:18:14;;;;;;;3.63;2.43;;;13.50;1.00;;;;;;5012482;28;20517;-84
2023/03/19 09:20:42;;;;;;;4.60;2.33;;;13.80;5.80;;;;;;5011718;28;20513;-86
2023/03/19 09:23:09;;;;;;;9.30;2.80;;;14.20;1.00;;;;;;5012700;28;20586;-84
2023/03/19 09:25:36;;;;;;;3.20;1.97;;;14.50;1.00;;;;;;5013155;28;21036;-85
2023/03/19 09:28:03;;;;;;;3.13;2.07;;;14.60;1.00;;;;;;5013142;28;20457;-86
2023/03/19 09:30:30;;;;;;;4.27;2.80;;;14.60;1.00;;;;;;5012490;28;20460;-86
2023/03/19 09:32:57;;;;;;;3.07;2.37;;;14.70;1.00;;;;;;5012389;28;20474;-85
2023/03/19 09:35:25;;;;;;;3.27;2.23;;;14.50;1.00;;;;;;5012996;28;20490;-86
2023/03/19 09:37:53;;;;;;;2.93;2.30;;;14.70;1.00;;;;;;5013109;28;20488;-85
2023/03/19 09:40:24;;;;;;;2.77;2.10;;;14.80;1.00;;;;;;5014752;28;20489;-86
2023/03/19 09:43:00;;;;;;;2.77;2.27;;;14.90;1.00;;;;;;5015648;28;20544;-83
2023/03/19 09:45:29;;;;;;;4.70;2.40;;;15.10;1.00;;;;;;5010930;28;20978;-84
2023/03/19 09:48:03;;;;;;;6.33;2.40;;;15.60;99.90;;;;;;5009804;28;20507;-83
2023/03/19 09:50:33;;;;;;;3.27;2.80;;;15.90;99.90;;;;;;5016157;28;20462;-82
2023/03/19 09:53:10;;;;;;;3.30;2.97;;;16.10;1.00;;;;;;5016699;28;20961;-84
2023/03/19 09:55:42;;;;;;;3.33;2.20;;;16.20;1.00;;;;;;5017763;28;20524;-84
2023/03/19 09:58:14;;;;;;;3.10;2.13;;;16.30;99.90;;;;;;5016730;28;20467;-84
2023/03/19 10:00:42;;;;;;;3.10;2.80;;;16.40;1.00;;;;;;5016584;28;20470;-84
2023/03/19 10:03:27;;;;;;;2.20;1.90;;;16.30;99.90;;;;;;5000974;28;20453;-84
2023/03/19 10:06:04;;;;;;;3.97;2.60;;;15.90;99.90;;;;;;5016795;28;20554;-84
2023/03/19 10:08:45;;;;;;;2.87;2.37;;;16.40;99.90;;;;;;5015973;28;20547;-84
2023/03/19 10:11:32;;;;;;;3.47;2.50;;;16.40;99.90;;;;;;4996925;28;20484;-85
2023/03/19 10:14:17;;;;;;;5.03;2.60;;;16.70;99.90;;;;;;5013559;28;20450;-84
2023/03/19 10:16:47;;;;;;;2.60;2.10;;;16.60;99.90;;;;;;5015621;28;20480;-84
2023/03/19 10:19:20;;;;;;;4.33;2.97;;;17.00;99.90;;;;;;5000241;28;20451;-82
2023/03/19 10:21:50;;;;;;;3.80;2.70;;;16.70;1.00;;;;;;5013441;28;20508;-83
2023/03/19 10:24:25;;;;;;;3.47;2.30;;;16.90;1.00;;;;;;5028055;28;20864;-84
2023/03/19 10:26:58;;;;;;;3.87;2.60;;;17.10;1.00;;;;;;5026193;28;20515;-86
2023/03/19 10:29:26;;;;;;;3.90;2.20;;;17.50;1.00;;;;;;5024874;28;20513;-85
2023/03/19 10:31:59;;;;;;;4.10;2.77;;;17.40;1.00;;;;;;5020127;28;20566;-83
2023/03/19 10:34:31;;;;;;;3.60;2.43;;;16.80;1.00;;;;;;5015988;28;20511;-84
2023/03/19 10:37:02;;;;;;;3.23;2.30;;;16.50;1.00;;;;;;5015518;28;20458;-83
2023/03/19 10:39:34;;;;;;;6.70;3.10;;;16.40;1.00;;;;;;5015843;28;20806;-83
2023/03/19 10:42:11;;;;;;;3.00;2.40;;;16.30;3.50;;;;;;5014569;28;20469;-84
2023/03/19 10:44:43;;;;;;;3.53;2.60;;;16.00;1.00;;;;;;5016882;28;20446;-83
2023/03/19 10:47:12;;;;;;;3.13;2.23;;;15.90;99.90;;;;;;5015732;28;20459;-85
2023/03/19 10:49:40;;;;;;;3.40;2.73;;;16.40;99.90;;;;;;5016384;28;20852;-84
2023/03/19 10:52:22;;;;;;;2.23;1.70;;;17.40;99.90;;;;;;5026358;23;20499;-85
2023/03/19 10:54:55;;;;;;;5.40;2.53;;;18.40;10.10;;;;;;4994307;28;20539;-83
2023/03/19 10:57:26;;;;;;;3.30;2.83;;;18.60;99.90;;;;;;4990077;28;20456;-83
2023/03/19 10:59:53;;;;;;;3.47;2.57;;;18.90;94.60;;;;;;5002516;28;20456;-87
2023/03/19 11:02:22;;;;;;;4.00;2.90;;;19.30;99.90;;;;;;5006126;28;20507;-83
2023/03/19 11:05:05;;;;;;;3.70;2.70;;;19.70;40.40;;;;;;4998546;28;20468;-84
2023/03/19 11:07:33;;;;;;;3.20;2.57;;;19.90;1.00;;;;;;5003394;28;20611;-82
2023/03/19 11:10:02;;;;;;;4.10;2.90;;;19.70;1.00;;;;;;5002855;28;20638;-84
2023/03/19 11:12:33;;;;;;;2.73;2.23;;;19.70;1.00;;;;;;5001182;28;20520;-83
2023/03/19 11:15:02;;;;;;;3.83;2.93;;;19.80;1.00;;;;;;4987690;28;20505;-84
2023/03/19 11:17:38;;;;;;;4.07;3.67;;;19.50;1.00;;;;;;4999682;28;20446;-83
2023/03/19 11:20:22;;;;;;;3.67;3.37;;;19.70;1.00;;;;;;4998871;28;20536;-83
2023/03/19 11:22:50;;;;;;;3.80;3.00;;;20.00;1.00;;;;;;4997488;28;20472;-84
2023/03/19 11:25:23;;;;;;;3.27;2.97;;;20.10;1.00;;;;;;4998156;28;20464;-82
2023/03/19 11:27:59;;;;;;;3.90;3.50;;;19.50;1.00;;;;;;4997950;28;20536;-84
2023/03/19 11:30:33;;;;;;;3.87;3.50;;;19.80;1.00;;;;;;4998376;28;20489;-83
2023/03/19 11:33:12;;;;;;;3.87;3.13;;;19.70;1.00;;;;;;4997406;28;20568;-83
2023/03/19 11:35:44;;;;;;;4.07;3.70;;;19.50;1.00;;;;;;4994511;28;20937;-83
2023/03/19 11:38:19;;;;;;;4.10;3.70;;;19.50;1.00;;;;;;4995638;28;20546;-84
2023/03/19 11:40:53;;;;;;;4.63;3.30;;;19.40;1.00;;;;;;4994625;28;20494;-83
2023/03/19 11:43:37;;;;;;;3.90;3.50;;;18.80;1.00;;;;;;4995131;28;20450;-83
2023/03/19 11:46:12;;;;;;;3.77;3.47;;;18.80;1.00;;;;;;4994978;28;20445;-84
2023/03/19 11:49:00;;;;;;;3.63;3.33;;;18.90;1.00;;;;;;4992309;28;20546;-83
2023/03/19 11:51:35;;;;;;;3.93;3.60;;;18.90;1.00;;;;;;4995408;28;20484;-83
2023/03/19 11:54:08;;;;;;;4.57;3.53;;;18.50;1.00;;;;;;4992164;28;20489;-84
2023/03/19 11:56:43;;;;;;;4.37;3.40;;;18.00;1.00;;;;;;4979646;28;20480;-84
2023/03/19 11:59:24;;;;;;;4.37;3.97;;;17.50;92.60;;;;;;4992265;28;20457;-83
2023/03/19 12:02:29;;;;;;;4.50;4.10;;;16.80;99.90;;;;;;4996502;28;20481;-83
2023/03/19 12:05:10;;;;;;;4.10;3.30;;;16.10;99.90;;;;;;4989471;28;20768;-84
2023/03/19 12:07:44;;;;;;;3.30;2.53;;;15.70;1.00;;;;;;5010660;28;20458;-83
2023/03/19 12:10:29;;;;;;;3.47;2.23;;;15.40;1.00;;;;;;4997793;28;20481;-83
2023/03/19 12:13:08;;;;;;;4.33;2.30;;;15.00;99.90;;;;;;4996307;28;20475;-83
2023/03/19 12:15:41;;;;;;;3.60;2.73;;;14.60;99.90;;;;;;5004632;28;20446;-82
2023/03/19 12:18:22;;;;;;;2.93;2.63;;;14.20;1.00;;;;;;5003132;28;20460;-84
2023/03/19 12:20:57;;;;;;;4.43;2.43;;;14.30;1.00;;;;;;4999225;28;20451;-84
2023/03/19 12:23:39;;;;;;;2.80;1.90;;;14.20;1.00;;;;;;4996228;28;20454;-82
2023/03/19 12:26:08;;;;;;;3.17;1.73;;;13.80;1.00;;;;;;4998308;28;20546;-82
2023/03/19 12:28:41;;;;;;;2.73;2.00;;;13.60;1.00;;;;;;4994829;28;20524;-82
2023/03/19 12:31:23;;;;;;;3.20;2.50;;;13.40;1.00;;;;;;4994894;28;20477;-82
2023/03/19 12:33:56;;;;;;;3.47;2.73;;;13.20;1.00;;;;;;4995369;28;20535;-82
2023/03/19 12:36:26;;;;;;;5.80;3.30;;;13.20;17.60;;;;;;4980020;28;20457;-82
2023/03/19 12:38:58;;;;;;;3.63;2.60;;;13.20;75.30;;;;;;4988071;28;20464;-83
2023/03/19 12:41:28;;;;;;;4.60;3.67;;;13.30;99.90;;;;;;4994533;28;20509;-83
2023/03/19 12:44:00;;;;;;;4.30;2.97;;;13.20;99.90;;;;;;4994946;28;20462;-85
2023/03/19 12:46:32;;;;;;;3.40;2.80;;;13.20;99.90;;;;;;4996553;28;20521;-84
2023/03/19 12:49:06;;;;;;;5.10;3.50;;;13.20;99.90;;;;;;4997877;28;20553;-84
2023/03/19 12:51:36;;;;;;;7.10;4.27;;;13.30;99.90;;;;;;4994734;28;21038;-84
2023/03/19 12:54:07;;;;;;;6.73;4.90;;;13.30;99.90;;;;;;4994860;28;20464;-85
2023/03/19 12:56:40;;;;;;;7.20;4.90;;;13.30;99.90;;;;;;4994923;28;20515;-84
2023/03/19 12:59:16;;;;;;;5.60;4.83;;;13.50;99.90;;;;;;4994454;28;20465;-85
2023/03/19 13:01:47;;;;;;;4.20;3.73;;;13.70;99.90;;;;;;4993407;28;20485;-84